Terminal Aerodrome Forecast
Issued by NWS Quad Cities IA IL

Home | Current Version | Previous Version | Text Only | Print | Product List | Glossary On
Versions: 1 2 3 4 5 6 7 8 9 10 11 12 13 14 15 16
971
FTUS43 KDVN 081131
TAFMLI
TAF
KMLI 081131Z 0812/0912 31019G28KT 3SM -SN SCT015 OVC025
      TEMPO 0812/0813 1 1/2SM -SN SCT014 OVC020
     FM081800 32018G27KT 5SM -SHSN BR OVC025
     FM090300 33017G23KT 3SM -SHSN BR OVC018=

USA.gov is the U.S. government's official web portal to all federal, state and local government web resources and services.